createdAt,value
2018-12-17T00:00:37.584Z,91.00
2018-12-17T00:01:37.581Z,91.00
2018-12-17T00:02:37.536Z,90.68
2018-12-17T00:03:37.520Z,90.68
2018-12-17T00:04:37.510Z,90.62
2018-12-17T00:05:41.798Z,91.46
2018-12-17T00:06:37.487Z,91.10
2018-12-17T00:07:37.695Z,91.14
2018-12-17T00:08:37.469Z,90.62
2018-12-17T00:09:37.487Z,90.41
2018-12-17T00:10:37.446Z,91.04
2018-12-17T00:11:37.470Z,90.93
2018-12-17T00:12:37.429Z,91.39
2018-12-17T00:13:37.414Z,91.71
2018-12-17T00:14:37.431Z,91.71
2018-12-17T00:15:37.422Z,91.77
2018-12-17T00:16:37.381Z,91.97
2018-12-17T00:17:37.367Z,91.46
2018-12-17T00:18:37.358Z,92.02
2018-12-17T00:19:37.346Z,91.56
2018-12-17T00:20:37.336Z,91.66
2018-12-17T00:21:37.386Z,91.77
2018-12-17T00:22:37.315Z,91.50
2018-12-17T00:23:37.303Z,91.29
2018-12-17T00:24:37.293Z,91.18
2018-12-17T00:25:37.282Z,91.39
2018-12-17T00:26:37.274Z,91.71
2018-12-17T00:27:37.289Z,90.87
2018-12-17T00:28:37.251Z,91.39
2018-12-17T00:29:37.241Z,91.08
2018-12-17T00:30:37.230Z,91.08
2018-12-17T00:31:37.217Z,91.12
2018-12-17T00:32:37.205Z,91.12
2018-12-17T00:33:37.226Z,90.39
2018-12-17T00:34:37.191Z,90.60
2018-12-17T00:35:37.174Z,90.81
2018-12-17T00:36:37.161Z,90.39
2018-12-17T00:37:37.152Z,90.18
2018-12-17T00:38:37.142Z,91.12
2018-12-17T00:39:37.175Z,91.22
2018-12-17T00:40:37.121Z,90.91
2018-12-17T00:41:37.110Z,90.91
2018-12-17T00:42:37.105Z,91.33
2018-12-17T00:43:37.090Z,91.96
2018-12-17T00:44:37.077Z,91.64
2018-12-17T00:45:37.098Z,91.54
2018-12-17T00:46:37.052Z,91.75
2018-12-17T00:47:37.045Z,91.96
2018-12-17T00:48:37.031Z,91.75
2018-12-17T00:49:37.022Z,91.64
2018-12-17T00:50:37.010Z,91.75
2018-12-17T00:51:37.029Z,92.27
2018-12-17T00:52:36.989Z,91.81
2018-12-17T00:53:36.976Z,91.91
2018-12-17T00:54:36.970Z,92.22
2018-12-17T00:55:36.955Z,92.12
2018-12-17T00:56:36.946Z,91.77
2018-12-17T00:57:36.997Z,92.22
2018-12-17T00:58:36.925Z,92.22
2018-12-17T00:59:36.921Z,91.50
2018-12-17T01:00:36.902Z,91.46
2018-12-17T01:01:36.892Z,91.77
2018-12-17T01:02:36.879Z,91.77
2018-12-17T01:03:36.901Z,91.77
2018-12-17T01:04:36.858Z,92.18
2018-12-17T01:05:36.848Z,91.87
2018-12-17T01:06:36.865Z,91.66
2018-12-17T01:07:36.826Z,91.87
2018-12-17T01:08:36.817Z,91.97
2018-12-17T01:09:36.822Z,91.56
2018-12-17T01:10:36.797Z,91.46
2018-12-17T01:11:36.812Z,91.97
2018-12-17T01:12:36.773Z,91.87
2018-12-17T01:13:36.760Z,91.77
2018-12-17T01:14:36.750Z,92.08
2018-12-17T01:15:36.738Z,91.77
2018-12-17T01:16:36.764Z,91.87
2018-12-17T01:17:36.715Z,91.77
2018-12-17T01:18:36.713Z,92.08
2018-12-17T01:19:36.694Z,91.56
2018-12-17T01:20:36.714Z,91.77
2018-12-17T01:21:36.676Z,91.77
2018-12-17T01:22:36.708Z,91.97
2018-12-17T01:23:36.652Z,91.77
2018-12-17T01:24:36.643Z,91.77
2018-12-17T01:25:36.630Z,91.66
2018-12-17T01:26:36.619Z,91.77
2018-12-17T01:27:36.608Z,92.08
2018-12-17T01:28:36.630Z,92.08
2018-12-17T01:29:36.585Z,91.97
2018-12-17T01:30:36.576Z,91.77
2018-12-17T01:31:36.568Z,91.66
2018-12-17T01:32:36.554Z,91.56
2018-12-17T01:33:36.542Z,91.77
2018-12-17T01:34:36.563Z,91.56
2018-12-17T01:35:36.523Z,91.66
2018-12-17T01:36:36.511Z,91.66
2018-12-17T01:37:36.499Z,92.02
2018-12-17T01:38:36.488Z,91.81
2018-12-17T01:39:36.479Z,92.02
2018-12-17T01:40:36.674Z,92.02
2018-12-17T01:41:36.461Z,91.66
2018-12-17T01:42:36.444Z,92.54
2018-12-17T01:43:36.433Z,92.29
2018-12-17T01:44:36.458Z,92.40
2018-12-17T01:45:36.416Z,91.97
2018-12-17T01:46:36.404Z,91.71
2018-12-17T01:47:36.390Z,91.50
2018-12-17T01:48:36.383Z,91.56
2018-12-17T01:49:36.399Z,92.02
2018-12-17T01:50:36.360Z,92.50
2018-12-17T01:51:36.352Z,92.22
2018-12-17T01:52:36.335Z,92.40
2018-12-17T01:53:36.326Z,92.08
2018-12-17T01:54:36.317Z,92.50
2018-12-17T01:55:36.334Z,92.02
2018-12-17T01:56:36.292Z,92.12
2018-12-17T01:57:36.308Z,92.12
2018-12-17T01:58:36.271Z,92.12
2018-12-17T01:59:36.262Z,92.12
2018-12-17T02:00:36.250Z,92.22
2018-12-17T02:01:36.269Z,92.54
2018-12-17T02:02:36.226Z,92.18
2018-12-17T02:03:36.217Z,91.71
2018-12-17T02:04:36.207Z,92.02
2018-12-17T02:05:36.195Z,92.33
2018-12-17T02:06:36.184Z,92.02
2018-12-17T02:07:36.203Z,92.37
2018-12-17T02:08:36.176Z,92.44
2018-12-17T02:09:36.418Z,92.90
2018-12-17T02:10:36.142Z,92.69
2018-12-17T02:11:36.131Z,92.90
2018-12-17T02:12:36.119Z,92.85
2018-12-17T02:13:36.109Z,92.54
2018-12-17T02:14:36.099Z,92.44
2018-12-17T02:15:36.116Z,92.44
2018-12-17T02:16:36.076Z,92.44
2018-12-17T02:17:36.064Z,92.22
2018-12-17T02:18:36.056Z,92.22
2018-12-17T02:19:36.044Z,92.12
2018-12-17T02:20:36.034Z,92.29
2018-12-17T02:21:36.053Z,92.02
2018-12-17T02:22:36.011Z,92.12
2018-12-17T02:23:36.003Z,92.18
2018-12-17T02:24:35.988Z,92.33
2018-12-17T02:25:35.977Z,92.40
2018-12-17T02:26:35.967Z,92.40
2018-12-17T02:27:35.986Z,92.29
2018-12-17T02:28:36.379Z,92.91
2018-12-17T02:29:35.933Z,92.66
2018-12-17T02:30:35.923Z,92.56
2018-12-17T02:31:35.911Z,92.77
2018-12-17T02:32:35.904Z,92.52
2018-12-17T02:33:35.921Z,92.21
2018-12-17T02:34:35.916Z,92.52
2018-12-17T02:35:35.870Z,92.41
2018-12-17T02:36:35.891Z,92.37
2018-12-17T02:37:35.852Z,91.85
2018-12-17T02:38:35.835Z,92.27
2018-12-17T02:39:35.824Z,92.37
2018-12-17T02:40:35.813Z,92.12
2018-12-17T02:41:35.832Z,91.91
2018-12-17T02:42:35.796Z,92.18
2018-12-17T02:43:35.812Z,91.66
2018-12-17T02:44:35.770Z,91.52
2018-12-17T02:45:35.761Z,91.31
2018-12-17T02:46:35.750Z,90.79
2018-12-17T02:47:35.740Z,90.69
2018-12-17T02:48:35.764Z,90.75
2018-12-17T02:49:35.716Z,90.85
2018-12-17T02:50:35.707Z,90.08
2018-12-17T02:51:35.724Z,90.70
2018-12-17T02:52:35.711Z,90.50
2018-12-17T02:53:35.670Z,89.77
2018-12-17T02:54:35.933Z,89.77
2018-12-17T02:55:35.653Z,89.67
2018-12-17T02:56:35.643Z,89.46
2018-12-17T02:57:35.628Z,89.73
2018-12-17T02:58:35.617Z,89.52
2018-12-17T02:59:35.607Z,89.00
2018-12-17T03:00:35.649Z,89.15
2018-12-17T03:01:35.585Z,89.04
2018-12-17T03:02:35.577Z,89.11
2018-12-17T03:03:35.563Z,89.11
2018-12-17T03:04:35.551Z,89.00
2018-12-17T03:05:35.544Z,89.00
2018-12-17T03:06:35.578Z,89.42
2018-12-17T03:07:35.519Z,88.90
2018-12-17T03:08:35.574Z,89.11
2018-12-17T03:09:35.499Z,89.04
2018-12-17T03:10:35.489Z,89.62
2018-12-17T03:11:35.516Z,89.67
2018-12-17T03:12:35.464Z,88.90
2018-12-17T03:13:35.566Z,89.31
2018-12-17T03:14:35.446Z,89.00
2018-12-17T03:15:35.433Z,88.42
2018-12-17T03:16:35.422Z,88.42
2018-12-17T03:17:35.411Z,88.52
2018-12-17T03:18:35.400Z,88.52
2018-12-17T03:19:35.449Z,89.67
2018-12-17T03:20:35.377Z,89.08
2018-12-17T03:21:35.368Z,89.46
2018-12-17T03:22:35.376Z,89.56
2018-12-17T03:23:35.347Z,89.39
2018-12-17T03:24:35.337Z,89.60
2018-12-17T03:25:35.372Z,89.50
2018-12-17T03:26:35.314Z,90.44
2018-12-17T03:27:35.301Z,90.95
2018-12-17T03:28:35.293Z,90.95
2018-12-17T03:29:35.287Z,90.95
2018-12-17T03:30:35.311Z,91.16
2018-12-17T03:31:35.259Z,90.23
2018-12-17T03:32:35.250Z,90.75
2018-12-17T03:33:35.236Z,90.33
2018-12-17T03:34:35.226Z,90.75
2018-12-17T03:35:35.215Z,91.27
2018-12-17T03:36:35.252Z,91.12
2018-12-17T03:37:35.194Z,91.78
2018-12-17T03:38:35.186Z,91.33
2018-12-17T03:39:35.218Z,91.33
2018-12-17T03:40:35.162Z,90.45
2018-12-17T03:41:35.150Z,90.87
2018-12-17T03:42:35.186Z,90.20
2018-12-17T03:43:35.176Z,90.66
2018-12-17T03:44:35.117Z,89.48
2018-12-17T03:45:35.108Z,89.58
2018-12-17T03:46:35.095Z,88.85
2018-12-17T03:47:35.086Z,88.34
2018-12-17T03:48:35.076Z,89.34
2018-12-17T03:49:35.126Z,89.03
2018-12-17T03:50:35.060Z,88.20
2018-12-17T03:51:35.042Z,89.27
2018-12-17T03:52:35.034Z,89.27
2018-12-17T03:53:35.018Z,88.23
2018-12-17T03:54:35.009Z,88.85
2018-12-17T03:55:35.047Z,88.13
2018-12-17T03:56:34.990Z,89.06
2018-12-17T03:57:34.975Z,88.96
2018-12-17T03:58:34.965Z,88.96
2018-12-17T03:59:34.954Z,88.96
2018-12-17T04:00:34.946Z,89.44
2018-12-17T04:01:34.980Z,88.34
2018-12-17T04:02:34.960Z,88.30
2018-12-17T04:03:34.909Z,88.30
2018-12-17T04:04:34.900Z,88.30
2018-12-17T04:05:34.937Z,88.34
2018-12-17T04:06:34.877Z,88.54
2018-12-17T04:07:34.911Z,89.17
2018-12-17T04:08:34.855Z,89.17
2018-12-17T04:09:34.846Z,89.06
2018-12-17T04:10:34.834Z,88.96
2018-12-17T04:11:34.824Z,89.17
2018-12-17T04:12:34.812Z,89.37
2018-12-17T04:13:34.845Z,89.13
2018-12-17T04:14:34.791Z,88.96
2018-12-17T04:15:34.781Z,88.96
2018-12-17T04:16:34.779Z,89.06
2018-12-17T04:17:34.757Z,88.92
2018-12-17T04:18:34.747Z,89.03
2018-12-17T04:19:34.778Z,89.13
2018-12-17T04:20:34.729Z,89.13
2018-12-17T04:21:34.714Z,89.23
2018-12-17T04:22:34.704Z,88.61
2018-12-17T04:23:34.693Z,89.03
2018-12-17T04:24:34.682Z,88.82
2018-12-17T04:25:34.720Z,88.92
2018-12-17T04:26:34.660Z,89.23
2018-12-17T04:27:34.689Z,89.44
2018-12-17T04:28:34.639Z,89.03
2018-12-17T04:29:34.626Z,88.09
2018-12-17T04:30:34.621Z,88.20
2018-12-17T04:31:34.606Z,88.51
2018-12-17T04:32:34.596Z,88.20
2018-12-17T04:33:34.622Z,88.40
2018-12-17T04:34:34.576Z,88.05
2018-12-17T04:35:34.563Z,87.84
2018-12-17T04:36:34.554Z,87.74
2018-12-17T04:37:34.580Z,88.26
2018-12-17T04:38:34.541Z,88.36
2018-12-17T04:39:34.520Z,88.05
2018-12-17T04:40:34.549Z,87.84
2018-12-17T04:41:34.497Z,88.15
2018-12-17T04:42:34.487Z,87.95
2018-12-17T04:43:34.478Z,87.74
2018-12-17T04:44:34.464Z,87.80
2018-12-17T04:45:34.454Z,87.38
2018-12-17T04:46:34.485Z,87.22
2018-12-17T04:47:34.432Z,87.28
2018-12-17T04:48:34.472Z,87.07
2018-12-17T04:49:34.410Z,87.28
2018-12-17T04:50:34.449Z,87.07
2018-12-17T04:51:34.391Z,87.32
2018-12-17T04:52:34.381Z,87.12
2018-12-17T04:53:34.417Z,87.38
2018-12-17T04:54:34.362Z,86.97
2018-12-17T04:55:34.344Z,87.43
2018-12-17T04:56:34.335Z,87.07
2018-12-17T04:57:34.367Z,86.66
2018-12-17T04:58:34.314Z,86.80
2018-12-17T04:59:34.302Z,87.53
2018-12-17T05:00:34.290Z,87.38
2018-12-17T05:01:34.282Z,87.18
2018-12-17T05:02:34.271Z,87.22
2018-12-17T05:03:34.304Z,86.87
2018-12-17T05:04:34.246Z,87.07
2018-12-17T05:05:34.284Z,87.18
2018-12-17T05:06:34.228Z,86.45
2018-12-17T05:07:34.213Z,87.49
2018-12-17T05:08:34.229Z,86.87
2018-12-17T05:09:34.196Z,86.97
2018-12-17T05:10:34.224Z,87.28
2018-12-17T05:11:34.171Z,87.32
2018-12-17T05:12:34.160Z,87.80
2018-12-17T05:13:34.151Z,87.18
2018-12-17T05:14:34.139Z,87.07
2018-12-17T05:15:34.130Z,87.32
2018-12-17T05:16:34.159Z,86.66
2018-12-17T05:17:34.105Z,87.07
2018-12-17T05:18:34.097Z,86.66
2018-12-17T05:19:34.086Z,86.41
2018-12-17T05:20:34.122Z,86.10
2018-12-17T05:21:34.062Z,86.52
2018-12-17T05:22:34.056Z,85.79
2018-12-17T05:23:34.050Z,86.00
2018-12-17T05:24:34.036Z,86.41
2018-12-17T05:25:34.019Z,85.69
2018-12-17T05:26:34.084Z,86.41
2018-12-17T05:27:33.997Z,86.10
2018-12-17T05:28:33.989Z,85.58
2018-12-17T05:29:34.030Z,85.58
2018-12-17T05:30:33.965Z,86.62
2018-12-17T05:31:33.957Z,86.10
2018-12-17T05:32:33.948Z,85.58
2018-12-17T05:33:33.933Z,85.79
2018-12-17T05:34:33.930Z,86.00
2018-12-17T05:35:33.951Z,85.79
2018-12-17T05:36:33.938Z,85.58
2018-12-17T05:37:33.943Z,86.10
2018-12-17T05:38:33.878Z,86.00
2018-12-17T05:39:33.873Z,85.89
2018-12-17T05:40:33.856Z,85.58
2018-12-17T05:41:33.844Z,85.79
2018-12-17T05:42:33.837Z,85.89
2018-12-17T05:43:33.863Z,85.55
2018-12-17T05:44:33.813Z,85.65
2018-12-17T05:45:33.807Z,85.86
2018-12-17T05:46:33.790Z,85.44
2018-12-17T05:47:33.782Z,85.96
2018-12-17T05:48:33.770Z,85.96
2018-12-17T05:49:33.804Z,85.24
2018-12-17T05:50:33.748Z,85.24
2018-12-17T05:51:33.737Z,85.86
2018-12-17T05:52:33.725Z,85.96
2018-12-17T05:53:33.814Z,85.75
2018-12-17T05:54:33.704Z,85.44
2018-12-17T05:55:33.694Z,85.55
2018-12-17T05:56:33.682Z,85.24
2018-12-17T05:57:33.672Z,85.24
2018-12-17T05:58:33.661Z,85.24
2018-12-17T05:59:33.708Z,85.13
2018-12-17T06:00:33.639Z,85.24
2018-12-17T06:01:33.639Z,85.03
2018-12-17T06:02:33.620Z,85.34
2018-12-17T06:03:33.610Z,85.86
2018-12-17T06:04:33.597Z,86.07
2018-12-17T06:05:33.639Z,84.92
2018-12-17T06:06:33.575Z,85.19
2018-12-17T06:07:33.569Z,85.40
2018-12-17T06:08:33.563Z,85.09
2018-12-17T06:09:33.553Z,85.40
2018-12-17T06:10:33.545Z,85.34
2018-12-17T06:11:33.565Z,85.13
2018-12-17T06:12:33.509Z,85.55
2018-12-17T06:13:33.500Z,86.07
2018-12-17T06:14:33.498Z,86.17
2018-12-17T06:15:33.479Z,86.58
2018-12-17T06:16:33.465Z,86.33
2018-12-17T06:17:33.664Z,86.02
2018-12-17T06:18:33.454Z,85.86
2018-12-17T06:19:33.435Z,85.96
2018-12-17T06:20:33.429Z,86.17
2018-12-17T06:21:33.674Z,86.23
2018-12-17T06:22:33.456Z,86.68
2018-12-17T06:23:33.450Z,87.27
2018-12-17T06:24:33.393Z,86.37
2018-12-17T06:25:33.378Z,86.79
2018-12-17T06:26:33.359Z,86.96
2018-12-17T06:27:36.789Z,86.65
2018-12-17T06:28:33.339Z,86.33
2018-12-17T06:29:35.672Z,86.54
2018-12-17T06:30:33.365Z,87.06
2018-12-17T06:31:33.318Z,86.79
2018-12-17T06:32:33.295Z,87.62
2018-12-17T06:33:33.299Z,87.62
2018-12-17T06:34:33.276Z,87.20
2018-12-17T06:35:33.316Z,87.57
2018-12-17T06:36:33.254Z,86.96
2018-12-17T06:37:33.303Z,87.41
2018-12-17T06:38:33.239Z,88.20
2018-12-17T06:39:33.219Z,87.47
2018-12-17T06:40:33.207Z,86.96
2018-12-17T06:41:33.197Z,86.96
2018-12-17T06:42:33.209Z,87.23
2018-12-17T06:43:33.214Z,87.33
2018-12-17T06:44:33.249Z,87.06
2018-12-17T06:45:33.159Z,86.85
2018-12-17T06:46:33.144Z,87.43
2018-12-17T06:47:33.138Z,87.02
2018-12-17T06:48:33.163Z,87.16
2018-12-17T06:49:33.116Z,87.68
2018-12-17T06:50:33.105Z,87.06
2018-12-17T06:51:33.094Z,87.27
2018-12-17T06:52:33.080Z,87.78
2018-12-17T06:53:33.095Z,87.27
2018-12-17T06:54:33.114Z,87.54
2018-12-17T06:55:33.043Z,87.27
2018-12-17T06:56:33.039Z,86.81
2018-12-17T06:57:33.038Z,87.27
2018-12-17T06:58:33.028Z,87.64
2018-12-17T06:59:33.004Z,86.91
2018-12-17T07:00:33.041Z,87.23
2018-12-17T07:01:32.997Z,87.54
2018-12-17T07:02:32.973Z,87.78
2018-12-17T07:03:33.008Z,87.02
2018-12-17T07:04:33.007Z,87.54
2018-12-17T07:05:32.941Z,87.23
2018-12-17T07:06:32.945Z,88.16
2018-12-17T07:07:32.977Z,87.64
2018-12-17T07:08:32.907Z,87.68
2018-12-17T07:09:32.898Z,88.30
2018-12-17T07:10:32.925Z,88.06
2018-12-17T07:11:32.875Z,87.99
2018-12-17T07:12:32.890Z,87.99
2018-12-17T07:13:32.891Z,88.20
2018-12-17T07:14:36.442Z,88.09
2018-12-17T07:15:32.839Z,88.09
2018-12-17T07:16:32.821Z,87.95
2018-12-17T07:17:32.922Z,88.26
2018-12-17T07:18:32.807Z,88.09
2018-12-17T07:19:32.784Z,88.26
2018-12-17T07:20:32.821Z,88.06
2018-12-17T07:21:32.769Z,87.88
2018-12-17T07:22:32.762Z,88.09
2018-12-17T07:23:32.752Z,87.02
2018-12-17T07:24:32.734Z,87.12
2018-12-17T07:25:32.826Z,87.74
2018-12-17T07:26:32.723Z,87.06
2018-12-17T07:27:32.700Z,87.68
2018-12-17T07:28:32.706Z,87.74
2018-12-17T07:29:32.731Z,87.47
2018-12-17T07:30:32.716Z,87.78
2018-12-17T07:31:32.756Z,88.20
2018-12-17T07:32:32.700Z,88.09
2018-12-17T07:33:32.640Z,88.20
2018-12-17T07:34:32.638Z,88.20
2018-12-17T07:35:32.613Z,87.99
2018-12-17T07:36:32.608Z,87.78
2018-12-17T07:37:32.648Z,88.09
2018-12-17T07:38:32.585Z,87.99
2018-12-17T07:39:32.607Z,87.95
2018-12-17T07:40:32.561Z,87.78
2018-12-17T07:41:32.552Z,88.09
2018-12-17T07:42:32.558Z,88.40
2018-12-17T07:43:32.578Z,87.88
2018-12-17T07:44:32.615Z,87.99
2018-12-17T07:45:32.525Z,87.88
2018-12-17T07:46:32.510Z,88.78
2018-12-17T07:47:32.498Z,88.71
2018-12-17T07:48:32.480Z,88.88
2018-12-17T07:49:32.463Z,89.40
2018-12-17T07:50:32.493Z,88.88
2018-12-17T07:51:32.469Z,88.46
2018-12-17T07:52:32.441Z,89.09
2018-12-17T07:53:32.420Z,89.09
2018-12-17T07:54:32.410Z,88.06
2018-12-17T07:55:32.496Z,88.09
2018-12-17T07:56:32.396Z,88.57
2018-12-17T07:57:32.440Z,88.57
2018-12-17T07:58:32.378Z,89.40
2018-12-17T07:59:32.361Z,88.67
2018-12-17T08:00:32.347Z,88.82
2018-12-17T08:01:32.334Z,88.88
2018-12-17T08:02:32.323Z,88.98
2018-12-17T08:03:32.386Z,88.71
2018-12-17T08:04:32.350Z,88.71
2018-12-17T08:05:32.404Z,88.98
2018-12-17T08:06:32.306Z,88.57
2018-12-17T08:07:32.295Z,87.95
2018-12-17T08:08:35.449Z,89.09
2018-12-17T08:09:32.263Z,88.20
2018-12-17T08:10:32.235Z,87.99
2018-12-17T08:11:32.279Z,88.88
2018-12-17T08:12:32.224Z,87.95
2018-12-17T08:13:32.214Z,88.16
2018-12-17T08:14:32.244Z,87.95
2018-12-17T08:15:32.184Z,88.06
2018-12-17T08:16:32.175Z,87.99
2018-12-17T08:17:32.163Z,88.36
2018-12-17T08:18:32.259Z,87.95
2018-12-17T08:19:32.142Z,88.06
2018-12-17T08:20:32.178Z,87.95
2018-12-17T08:21:32.174Z,88.06
2018-12-17T08:22:32.107Z,88.78
2018-12-17T08:23:32.104Z,88.16
2018-12-17T08:24:32.369Z,87.85
2018-12-17T08:25:32.075Z,87.99
2018-12-17T08:26:32.064Z,88.57
2018-12-17T08:27:32.066Z,87.95
2018-12-17T08:28:32.044Z,87.95
2018-12-17T08:29:32.043Z,88.67
2018-12-17T08:30:32.147Z,87.95
2018-12-17T08:31:32.011Z,87.85
2018-12-17T08:32:32.006Z,88.16
2018-12-17T08:33:32.013Z,87.85
2018-12-17T08:34:32.007Z,87.33
2018-12-17T08:35:31.990Z,87.02
2018-12-17T08:36:32.005Z,87.54
2018-12-17T08:37:31.987Z,88.36
2018-12-17T08:38:31.951Z,88.67
2018-12-17T08:39:31.934Z,87.95
2018-12-17T08:40:31.961Z,87.74
2018-12-17T08:41:31.966Z,87.74
2018-12-17T08:42:32.004Z,88.06
2018-12-17T08:43:32.009Z,88.06
2018-12-17T08:44:31.881Z,88.67
2018-12-17T08:45:31.901Z,89.09
2018-12-17T08:46:31.903Z,87.95
2018-12-17T08:47:31.838Z,87.81
2018-12-17T08:48:31.829Z,87.54
2018-12-17T08:49:31.899Z,87.60
2018-12-17T08:50:31.834Z,87.64
2018-12-17T08:51:31.801Z,87.29
2018-12-17T08:52:31.842Z,86.67
2018-12-17T08:53:31.795Z,86.46
2018-12-17T08:54:31.829Z,86.77
2018-12-17T08:55:31.810Z,86.98
2018-12-17T08:56:31.748Z,86.83
2018-12-17T08:57:37.812Z,86.15
2018-12-17T08:58:32.731Z,86.52
2018-12-17T08:59:31.709Z,86.25
2018-12-17T09:00:31.805Z,86.67
2018-12-17T09:01:31.696Z,86.98
2018-12-17T09:02:31.710Z,86.67
2018-12-17T09:03:31.734Z,86.46
2018-12-17T09:04:31.662Z,86.32
2018-12-17T09:05:31.786Z,86.11
2018-12-17T09:06:31.888Z,85.80
2018-12-17T09:07:32.079Z,86.11
2018-12-17T09:08:31.640Z,86.69
2018-12-17T09:09:31.606Z,86.11
2018-12-17T09:10:31.596Z,86.21
2018-12-17T09:11:31.623Z,85.91
2018-12-17T09:12:31.861Z,86.49
2018-12-17T09:13:31.561Z,85.86
2018-12-17T09:14:31.558Z,85.55
2018-12-17T09:15:31.591Z,86.21
2018-12-17T09:16:31.538Z,86.49
2018-12-17T09:17:31.589Z,86.18
2018-12-17T09:18:31.532Z,85.76
2018-12-17T09:19:31.524Z,86.28
2018-12-17T09:20:32.131Z,86.18
2018-12-17T09:21:31.569Z,86.28
2018-12-17T09:22:31.501Z,85.45
2018-12-17T09:23:31.528Z,85.86
2018-12-17T09:24:31.441Z,85.83
2018-12-17T09:25:31.464Z,85.97
2018-12-17T09:26:31.425Z,85.83
2018-12-17T09:27:31.452Z,85.52
2018-12-17T09:28:31.405Z,86.13
2018-12-17T09:29:31.460Z,85.83
2018-12-17T09:30:31.397Z,86.34
2018-12-17T09:31:31.367Z,85.99
2018-12-17T09:32:31.374Z,84.86
2018-12-17T09:33:31.374Z,84.79
2018-12-17T09:34:31.420Z,84.89
2018-12-17T09:35:31.393Z,84.55
2018-12-17T09:36:31.428Z,85.21
2018-12-17T09:37:31.326Z,85.27
2018-12-17T09:38:31.328Z,85.52
2018-12-17T09:39:31.286Z,85.72
2018-12-17T09:40:31.408Z,85.78
2018-12-17T09:41:31.577Z,85.37
2018-12-17T09:42:31.252Z,85.47
2018-12-17T09:43:31.236Z,85.47
2018-12-17T09:44:31.247Z,85.17
2018-12-17T09:45:31.211Z,86.20
2018-12-17T09:46:31.220Z,85.47
2018-12-17T09:47:31.313Z,85.58
2018-12-17T09:48:31.182Z,85.68
2018-12-17T09:49:31.320Z,84.86
2018-12-17T09:50:31.196Z,84.51
2018-12-17T09:51:31.184Z,84.55
2018-12-17T09:52:31.295Z,85.37
2018-12-17T09:53:31.135Z,85.47
2018-12-17T09:54:31.210Z,85.58
2018-12-17T09:55:31.119Z,85.27
2018-12-17T09:56:31.153Z,86.10
2018-12-17T09:57:31.084Z,85.37
2018-12-17T09:58:31.182Z,86.10
2018-12-17T09:59:31.084Z,85.37
2018-12-17T10:00:31.221Z,85.99
2018-12-17T10:01:31.065Z,86.03
2018-12-17T10:02:31.048Z,85.72
2018-12-17T10:03:31.112Z,85.93
2018-12-17T10:04:31.044Z,85.62
2018-12-17T10:05:31.008Z,86.34
2018-12-17T10:06:31.073Z,86.03
2018-12-17T10:07:31.048Z,85.31
2018-12-17T10:08:31.016Z,84.86
2018-12-17T10:09:31.031Z,85.99
2018-12-17T10:10:30.979Z,85.44
2018-12-17T10:11:30.950Z,85.89
2018-12-17T10:12:30.944Z,85.68
2018-12-17T10:13:30.908Z,85.23
2018-12-17T10:14:30.961Z,84.92
2018-12-17T10:15:30.940Z,84.96
2018-12-17T10:16:30.891Z,85.47
2018-12-17T10:17:30.978Z,85.75
2018-12-17T10:18:36.667Z,84.92
2018-12-17T10:19:32.146Z,84.51
2018-12-17T10:20:30.836Z,84.72
2018-12-17T10:21:30.962Z,84.72
2018-12-17T10:22:30.851Z,84.75
2018-12-17T10:23:30.910Z,86.05
2018-12-17T10:24:30.790Z,85.44
2018-12-17T10:25:30.894Z,85.13
2018-12-17T10:26:30.842Z,85.02
2018-12-17T10:27:30.755Z,84.41
2018-12-17T10:28:30.801Z,84.51
2018-12-17T10:29:30.739Z,84.81
2018-12-17T10:30:32.707Z,85.85
2018-12-17T10:31:31.189Z,85.33
2018-12-17T10:32:30.788Z,84.99
2018-12-17T10:33:30.705Z,84.27
2018-12-17T10:34:30.679Z,84.88
2018-12-17T10:35:30.737Z,84.47
2018-12-17T10:36:30.680Z,84.57
2018-12-17T10:37:30.795Z,83.64
2018-12-17T10:38:30.705Z,84.67
2018-12-17T10:39:30.652Z,84.67
2018-12-17T10:40:30.628Z,84.67
2018-12-17T10:41:30.657Z,84.67
2018-12-17T10:42:30.697Z,84.36
2018-12-17T10:43:30.631Z,84.67
2018-12-17T10:44:30.578Z,84.01
2018-12-17T10:45:30.601Z,84.01
2018-12-17T10:46:30.660Z,83.29
2018-12-17T10:47:30.547Z,83.40
2018-12-17T10:48:30.599Z,82.89
2018-12-17T10:49:30.535Z,83.19
2018-12-17T10:50:30.587Z,83.19
2018-12-17T10:51:30.513Z,83.40
2018-12-17T10:52:30.494Z,83.29
2018-12-17T10:53:30.479Z,83.71
2018-12-17T10:54:30.470Z,83.71
2018-12-17T10:55:30.463Z,83.81
2018-12-17T10:56:30.508Z,83.71
2018-12-17T10:57:30.507Z,83.77
2018-12-17T10:58:30.433Z,83.36
2018-12-17T10:59:30.452Z,83.26
2018-12-17T11:00:30.464Z,82.74
2018-12-17T11:01:32.462Z,83.32
2018-12-17T11:02:30.415Z,82.12
2018-12-17T11:03:30.389Z,82.95
2018-12-17T11:04:30.365Z,82.95
2018-12-17T11:05:30.534Z,83.22
2018-12-17T11:06:30.789Z,82.91
2018-12-17T11:07:30.643Z,83.53
2018-12-17T11:08:31.713Z,83.32
2018-12-17T11:09:32.103Z,82.77
2018-12-17T11:10:30.576Z,82.29
2018-12-17T11:11:30.426Z,82.15
2018-12-17T11:12:31.594Z,82.25
2018-12-17T11:13:30.258Z,82.67
2018-12-17T11:14:30.245Z,82.25
2018-12-17T11:15:30.263Z,82.60
2018-12-17T11:16:30.229Z,82.70
2018-12-17T11:17:30.215Z,83.32
2018-12-17T11:18:30.359Z,82.67
2018-12-17T11:19:30.353Z,82.15
2018-12-17T11:20:30.303Z,82.35
2018-12-17T11:21:30.168Z,82.15
2018-12-17T11:22:30.180Z,82.67
2018-12-17T11:23:30.434Z,82.67
2018-12-17T11:24:30.149Z,82.21
2018-12-17T11:25:30.117Z,82.63
2018-12-17T11:26:30.110Z,82.01
2018-12-17T11:27:30.159Z,81.67
2018-12-17T11:28:30.088Z,81.56
2018-12-17T11:29:30.212Z,80.94
2018-12-17T11:30:30.075Z,81.05
2018-12-17T11:31:30.133Z,81.05
2018-12-17T11:32:30.071Z,81.62
2018-12-17T11:33:30.030Z,81.01
2018-12-17T11:34:30.050Z,80.60
2018-12-17T11:35:30.056Z,81.01
2018-12-17T11:36:30.018Z,80.35
2018-12-17T11:37:30.045Z,80.46
2018-12-17T11:38:29.992Z,79.74
2018-12-17T11:39:29.999Z,80.25
2018-12-17T11:40:30.143Z,80.25
2018-12-17T11:41:30.056Z,78.81
2018-12-17T11:42:29.973Z,79.60
2018-12-17T11:43:29.972Z,80.42
2018-12-17T11:44:29.957Z,79.19
2018-12-17T11:45:29.974Z,78.47
2018-12-17T11:46:29.973Z,79.19
2018-12-17T11:47:29.879Z,78.98
2018-12-17T11:48:29.939Z,79.91
2018-12-17T11:49:29.961Z,78.47
2018-12-17T11:50:29.922Z,79.87
2018-12-17T11:51:29.898Z,79.46
2018-12-17T11:52:29.849Z,79.05
2018-12-17T11:53:29.855Z,79.83
2018-12-17T11:54:29.795Z,79.42
2018-12-17T11:55:29.935Z,78.39
2018-12-17T11:56:29.777Z,78.56
2018-12-17T11:57:29.798Z,78.56
2018-12-17T11:58:29.793Z,78.16
2018-12-17T11:59:29.745Z,76.31
2018-12-17T12:00:29.740Z,77.13
2018-12-17T12:01:29.745Z,77.95
2018-12-17T12:02:29.906Z,76.20
2018-12-17T12:03:29.744Z,76.92
2018-12-17T12:04:29.679Z,78.12
2018-12-17T12:05:29.741Z,77.71
2018-12-17T12:06:29.954Z,77.91
2018-12-17T12:07:29.667Z,78.08
2018-12-17T12:08:29.635Z,76.54
2018-12-17T12:09:29.627Z,78.02
2018-12-17T12:10:29.647Z,76.58
2018-12-17T12:11:29.688Z,74.84
2018-12-17T12:12:29.651Z,76.48
2018-12-17T12:13:29.644Z,75.45
2018-12-17T12:14:29.591Z,74.32
2018-12-17T12:15:29.558Z,74.02
2018-12-17T12:16:29.554Z,74.22
2018-12-17T12:17:29.620Z,74.46
2018-12-17T12:18:29.538Z,74.02
2018-12-17T12:19:29.536Z,72.48
2018-12-17T12:20:29.518Z,72.92
2018-12-17T12:21:29.561Z,72.89
2018-12-17T12:22:29.487Z,73.71
2018-12-17T12:23:29.523Z,72.48
2018-12-17T12:24:29.468Z,72.17
2018-12-17T12:25:29.444Z,73.64
2018-12-17T12:26:29.443Z,72.68
2018-12-17T12:27:29.426Z,73.64
2018-12-17T12:28:29.430Z,73.95
2018-12-17T12:29:29.467Z,74.05
2018-12-17T12:30:29.399Z,73.64
2018-12-17T12:31:29.456Z,73.23
2018-12-17T12:32:29.375Z,71.90
2018-12-17T12:33:29.513Z,70.67
2018-12-17T12:34:29.455Z,68.72
2018-12-17T12:35:29.336Z,68.21
2018-12-17T12:36:29.346Z,69.33
2018-12-17T12:37:29.352Z,69.64
2018-12-17T12:38:29.317Z,70.73
2018-12-17T12:39:29.313Z,68.59
2018-12-17T12:40:29.333Z,67.35
2018-12-17T12:41:29.284Z,68.59
2018-12-17T12:42:29.258Z,68.59
2018-12-17T12:43:29.306Z,68.35
2018-12-17T12:44:29.239Z,69.98
2018-12-17T12:45:29.403Z,68.55
2018-12-17T12:46:29.215Z,68.14
2018-12-17T12:47:29.211Z,68.55
2018-12-17T12:48:29.219Z,68.62
2018-12-17T12:49:29.178Z,68.21
2018-12-17T12:50:29.350Z,69.24
2018-12-17T12:51:32.594Z,69.54
2018-12-17T12:52:29.154Z,67.49